createdAt,value
2024-02-29T00:01:54.864Z,23.66
2024-02-29T00:04:28.552Z,24.12
2024-02-29T00:07:02.041Z,24.97
2024-02-29T00:20:15.841Z,29.03
2024-02-29T00:22:49.105Z,29.83
2024-02-29T00:25:22.822Z,30.71
2024-02-29T00:27:57.992Z,29.41
2024-02-29T00:30:31.824Z,30.03
2024-02-29T00:47:08.786Z,29.99
2024-02-29T00:49:48.805Z,29.12
2024-02-29T00:52:22.082Z,30.20
2024-02-29T00:54:55.827Z,30.77
2024-02-29T00:57:29.083Z,31.53
2024-02-29T01:00:02.813Z,31.05
2024-02-29T01:02:37.997Z,29.62
2024-02-29T01:12:02.030Z,30.41
2024-02-29T01:14:35.038Z,29.26
2024-02-29T01:17:14.835Z,30.42
2024-02-29T01:19:49.972Z,29.82
2024-02-29T01:22:23.869Z,31.06
2024-02-29T01:24:57.264Z,30.81
2024-02-29T01:27:30.837Z,30.54
2024-02-29T01:40:42.799Z,31.86
2024-02-29T01:43:16.162Z,31.07
2024-02-29T01:45:49.854Z,31.79
2024-02-29T01:48:23.266Z,32.46
2024-02-29T01:50:56.823Z,32.86
2024-02-29T02:07:33.770Z,36.55
2024-02-29T02:10:14.952Z,37.95
2024-02-29T02:12:48.120Z,37.63
2024-02-29T02:15:22.123Z,37.31
2024-02-29T02:17:56.082Z,38.12
2024-02-29T02:20:31.824Z,36.60
2024-02-29T02:33:41.820Z,38.88
2024-02-29T02:36:16.978Z,37.42
2024-02-29T02:38:50.814Z,38.16
2024-02-29T02:41:24.044Z,38.39
2024-02-29T02:43:57.790Z,35.99
2024-02-29T02:46:31.073Z,36.06
2024-02-29T02:59:21.759Z,19.68
2024-02-29T03:02:01.818Z,16.93
2024-02-29T03:04:35.108Z,15.88
2024-02-29T03:07:08.852Z,16.05
2024-02-29T03:09:42.117Z,14.63
2024-02-29T03:12:16.789Z,14.48
2024-02-29T03:25:40.781Z,13.22
2024-02-29T03:28:14.123Z,13.45
2024-02-29T03:30:47.832Z,12.68
2024-02-29T03:33:21.082Z,12.51
2024-02-29T03:35:54.806Z,11.91
2024-02-29T03:38:28.153Z,11.83
2024-02-29T03:41:03.812Z,11.67
2024-02-29T03:54:13.797Z,11.92
2024-02-29T03:56:48.983Z,13.05
2024-02-29T03:59:22.770Z,13.00
2024-02-29T04:01:56.148Z,12.97
2024-02-29T04:04:29.796Z,13.05
2024-02-29T04:07:03.050Z,13.04
2024-02-29T04:19:53.763Z,12.35
2024-02-29T04:22:34.079Z,12.25
2024-02-29T04:25:08.422Z,12.36
2024-02-29T04:27:41.808Z,11.96
2024-02-29T04:30:15.358Z,12.88
2024-02-29T04:32:48.861Z,13.46
2024-02-29T04:46:00.831Z,14.61
2024-02-29T04:48:34.088Z,13.81
2024-02-29T04:51:07.781Z,13.76
2024-02-29T04:54:01.286Z,13.49
2024-02-29T04:56:41.802Z,13.65
2024-02-29T04:59:15.302Z,14.57
2024-02-29T05:01:50.961Z,14.47
2024-02-29T05:15:01.800Z,15.23
2024-02-29T05:17:36.999Z,16.14
2024-02-29T05:20:11.794Z,15.98
2024-02-29T05:22:45.125Z,15.69
2024-02-29T05:25:19.151Z,14.99
2024-02-29T05:27:53.073Z,14.13
2024-02-29T05:40:43.767Z,13.63
2024-02-29T05:43:23.837Z,12.38
2024-02-29T05:45:57.049Z,12.05
2024-02-29T05:48:30.832Z,12.00
2024-02-29T05:51:05.172Z,12.82
2024-02-29T06:07:20.792Z,10.57
2024-02-29T06:09:54.052Z,10.89
2024-02-29T06:12:27.771Z,11.25
2024-02-29T06:15:01.298Z,11.00
2024-02-29T06:17:34.796Z,10.86
2024-02-29T06:20:10.050Z,10.47
2024-02-29T06:22:47.787Z,10.61
2024-02-29T06:32:56.769Z,10.69
2024-02-29T06:35:36.762Z,11.02
2024-02-29T06:38:12.025Z,10.11
2024-02-29T06:40:45.768Z,10.56
2024-02-29T06:43:19.279Z,10.35
2024-02-29T06:45:54.787Z,10.86
2024-02-29T06:59:40.778Z,10.87
2024-02-29T07:02:14.062Z,10.79
2024-02-29T07:04:47.850Z,11.72
2024-02-29T07:07:21.102Z,11.50
2024-02-29T07:09:54.795Z,11.30
2024-02-29T07:12:28.009Z,11.48
2024-02-29T07:28:43.806Z,11.89
2024-02-29T07:31:17.164Z,11.87
2024-02-29T07:33:50.953Z,12.46
2024-02-29T07:36:24.029Z,11.87
2024-02-29T07:38:57.767Z,12.58
2024-02-29T07:41:31.064Z,12.57
2024-02-29T07:54:21.757Z,13.44
2024-02-29T07:57:01.774Z,13.27
2024-02-29T07:59:34.982Z,13.67
2024-02-29T08:02:08.901Z,13.64
2024-02-29T08:04:42.065Z,13.98
2024-02-29T08:07:15.877Z,14.06
2024-02-29T08:20:27.778Z,14.70
2024-02-29T08:23:01.037Z,14.48
2024-02-29T08:25:34.742Z,14.08
2024-02-29T08:28:08.119Z,14.55
2024-02-29T08:30:41.791Z,14.79
2024-02-29T08:33:15.106Z,14.37
2024-02-29T08:46:41.731Z,15.17
2024-02-29T08:49:21.782Z,14.79
2024-02-29T08:51:55.083Z,14.44
2024-02-29T08:54:28.764Z,14.88
2024-02-29T08:57:02.050Z,14.68
2024-02-29T08:59:35.766Z,14.39
2024-02-29T09:02:11.137Z,14.81
2024-02-29T09:14:59.710Z,14.21
2024-02-29T09:17:41.780Z,14.06
2024-02-29T09:20:15.269Z,14.32
2024-02-29T09:22:48.734Z,14.33
2024-02-29T09:25:22.362Z,14.33
2024-02-29T09:27:55.814Z,14.48
2024-02-29T09:41:18.833Z,16.39
2024-02-29T09:44:03.538Z,16.95
2024-02-29T09:46:36.756Z,18.10
2024-02-29T09:49:10.083Z,17.45
2024-02-29T09:51:46.781Z,17.94
2024-02-29T10:08:23.714Z,18.37
2024-02-29T10:11:03.799Z,17.84
2024-02-29T10:13:39.190Z,18.28
2024-02-29T10:16:13.849Z,17.50
2024-02-29T10:18:47.014Z,17.21
2024-02-29T10:21:20.745Z,17.21
2024-02-29T10:34:32.772Z,17.33
2024-02-29T10:37:06.224Z,16.48
2024-02-29T10:39:39.906Z,16.93
2024-02-29T10:42:13.584Z,16.58
2024-02-29T10:44:51.935Z,16.96
2024-02-29T10:47:30.453Z,17.79
2024-02-29T11:00:27.715Z,17.51
2024-02-29T11:03:08.752Z,17.34
2024-02-29T11:05:45.343Z,17.39
2024-02-29T11:08:25.714Z,18.40
2024-02-29T11:11:00.182Z,18.07
2024-02-29T11:13:34.719Z,17.81
2024-02-29T11:16:11.905Z,18.04
2024-02-29T11:29:16.723Z,18.91
2024-02-29T11:32:02.738Z,18.58
2024-02-29T11:34:36.018Z,18.55
2024-02-29T11:37:12.781Z,18.63
2024-02-29T11:39:46.187Z,18.75
2024-02-29T11:42:19.789Z,19.18
2024-02-29T11:55:31.757Z,19.46
2024-02-29T11:58:05.466Z,20.32
2024-02-29T12:00:38.814Z,22.20
2024-02-29T12:03:12.742Z,22.95
2024-02-29T12:05:45.737Z,24.11
2024-02-29T12:08:19.676Z,24.03
2024-02-29T12:21:23.715Z,22.73
2024-02-29T12:24:03.710Z,22.94
2024-02-29T12:26:37.409Z,21.79
2024-02-29T12:29:12.731Z,21.99
2024-02-29T12:31:46.046Z,21.30
2024-02-29T12:34:19.762Z,21.92
2024-02-29T12:36:56.257Z,20.77
2024-02-29T12:49:51.679Z,21.83
2024-02-29T12:52:33.976Z,21.60
2024-02-29T12:55:09.276Z,21.32
2024-02-29T12:57:42.753Z,20.94
2024-02-29T13:00:21.593Z,21.34
2024-02-29T13:03:01.710Z,21.36
2024-02-29T13:16:13.838Z,24.34
2024-02-29T13:18:46.908Z,24.81
2024-02-29T13:21:26.729Z,24.50
2024-02-29T13:24:00.000Z,24.80
2024-02-29T13:26:33.763Z,26.06
2024-02-29T13:43:10.693Z,25.86
2024-02-29T13:45:50.743Z,25.71
2024-02-29T13:48:24.896Z,26.43
2024-02-29T13:50:58.735Z,26.26
2024-02-29T13:53:31.986Z,25.84
2024-02-29T13:56:06.009Z,26.70
2024-02-29T14:09:18.708Z,25.83
2024-02-29T14:11:51.990Z,26.13
2024-02-29T14:14:25.700Z,25.63
2024-02-29T14:16:59.036Z,25.99
2024-02-29T14:19:32.768Z,25.08
2024-02-29T14:22:06.073Z,25.29
2024-02-29T14:34:56.680Z,25.33
2024-02-29T14:37:36.695Z,25.87
2024-02-29T14:40:11.372Z,25.88
2024-02-29T14:42:44.760Z,25.08
2024-02-29T14:45:17.947Z,25.91
2024-02-29T14:47:51.755Z,24.46
2024-02-29T15:01:13.068Z,25.38
2024-02-29T15:03:47.033Z,26.06
2024-02-29T15:06:20.708Z,25.84
2024-02-29T15:08:54.103Z,26.30
2024-02-29T15:11:27.988Z,25.25
2024-02-29T15:14:02.045Z,24.61
2024-02-29T15:16:37.692Z,24.95
2024-02-29T15:29:57.745Z,22.89
2024-02-29T15:32:32.978Z,22.36
2024-02-29T15:35:15.721Z,23.02
2024-02-29T15:37:48.924Z,23.52
2024-02-29T15:40:28.786Z,22.77
2024-02-29T15:43:02.005Z,21.50
2024-02-29T15:55:54.684Z,21.10
2024-02-29T15:58:35.746Z,22.02
2024-02-29T16:01:09.219Z,20.48
2024-02-29T16:03:42.926Z,20.60
2024-02-29T16:06:16.006Z,20.88
2024-02-29T16:22:31.801Z,20.27
2024-02-29T16:25:06.267Z,21.23
2024-02-29T16:27:39.707Z,20.31
2024-02-29T16:30:13.582Z,20.79
2024-02-29T16:32:47.366Z,21.21
2024-02-29T16:35:21.018Z,20.02
2024-02-29T16:37:58.476Z,19.92
2024-02-29T16:48:11.724Z,19.06
2024-02-29T16:50:51.690Z,20.44
2024-02-29T16:53:26.899Z,19.65
2024-02-29T16:56:00.737Z,19.17
2024-02-29T16:58:34.301Z,19.53
2024-02-29T17:01:07.744Z,19.90
2024-02-29T17:14:57.692Z,18.83
2024-02-29T17:17:31.016Z,19.53
2024-02-29T17:20:04.709Z,19.57
2024-02-29T17:22:37.927Z,19.45
2024-02-29T17:25:13.733Z,19.63
2024-02-29T17:27:46.960Z,18.91
2024-02-29T17:44:02.678Z,20.21
2024-02-29T17:46:35.941Z,21.10
2024-02-29T17:49:09.714Z,20.07
2024-02-29T17:51:44.385Z,19.82
2024-02-29T17:54:17.705Z,20.83
2024-02-29T17:56:52.198Z,20.51
2024-02-29T18:09:42.707Z,21.52
2024-02-29T18:12:22.757Z,21.96
2024-02-29T18:14:55.892Z,21.50
2024-02-29T18:17:29.675Z,21.07
2024-02-29T18:20:03.552Z,21.78
2024-02-29T18:22:36.677Z,21.55
2024-02-29T18:35:48.685Z,24.15
2024-02-29T18:38:21.965Z,23.87
2024-02-29T18:40:55.710Z,23.45
2024-02-29T18:43:29.012Z,25.66
2024-02-29T18:46:06.107Z,24.27
2024-02-29T19:02:44.649Z,25.99
2024-02-29T19:05:24.699Z,26.95
2024-02-29T19:07:57.943Z,27.13
2024-02-29T19:10:31.933Z,27.37
2024-02-29T19:13:05.915Z,25.73
2024-02-29T19:15:39.888Z,26.29
2024-02-29T19:18:15.415Z,26.77
2024-02-29T19:31:03.693Z,27.96
2024-02-29T19:33:45.726Z,27.68
2024-02-29T19:36:18.942Z,27.75
2024-02-29T19:38:52.668Z,28.00
2024-02-29T19:41:26.040Z,28.16
2024-02-29T19:57:41.672Z,29.08
2024-02-29T20:00:16.507Z,28.69
2024-02-29T20:02:49.657Z,29.23
2024-02-29T20:05:22.962Z,29.06
2024-02-29T20:07:56.680Z,29.59
2024-02-29T20:10:30.034Z,28.69
2024-02-29T20:13:05.683Z,28.93
2024-02-29T20:22:50.665Z,29.11
2024-02-29T20:25:30.905Z,28.77
2024-02-29T20:28:07.088Z,28.81
2024-02-29T20:30:40.773Z,28.21
2024-02-29T20:33:14.179Z,27.52
2024-02-29T20:35:47.692Z,27.73
2024-02-29T20:38:20.928Z,27.64
2024-02-29T20:51:11.646Z,28.58
2024-02-29T20:53:51.652Z,28.75
2024-02-29T20:56:25.653Z,28.20
2024-02-29T20:58:58.673Z,28.02
2024-02-29T21:01:32.050Z,28.14
2024-02-29T21:17:47.731Z,31.12
2024-02-29T21:20:20.882Z,31.00
2024-02-29T21:23:00.869Z,31.88
2024-02-29T21:25:34.016Z,31.46
2024-02-29T21:28:07.666Z,31.51
2024-02-29T21:30:40.936Z,30.65
2024-02-29T21:33:16.870Z,31.85
2024-02-29T21:43:01.640Z,31.62
2024-02-29T21:45:41.666Z,32.07
2024-02-29T21:48:17.211Z,32.92
2024-02-29T21:50:50.664Z,32.57
2024-02-29T21:53:24.028Z,33.96
2024-02-29T21:55:57.654Z,33.50
2024-02-29T21:58:31.009Z,35.43
2024-02-29T22:11:21.638Z,35.75
2024-02-29T22:14:01.664Z,35.16
2024-02-29T22:16:41.032Z,34.39
2024-02-29T22:19:21.708Z,35.54
2024-02-29T22:21:54.904Z,33.88
2024-02-29T22:38:10.646Z,33.55
2024-02-29T22:40:44.094Z,33.05
2024-02-29T22:43:18.741Z,33.00
2024-02-29T22:45:51.989Z,32.58
2024-02-29T22:48:25.642Z,32.20
2024-02-29T22:50:59.505Z,32.74
2024-02-29T22:53:34.658Z,33.89
2024-02-29T23:03:26.612Z,32.63
2024-02-29T23:06:06.682Z,32.82
2024-02-29T23:08:41.891Z,33.29
2024-02-29T23:11:15.688Z,32.78
2024-02-29T23:13:48.924Z,33.37
2024-02-29T23:16:22.678Z,32.71
2024-02-29T23:29:35.684Z,32.82
2024-02-29T23:32:09.313Z,31.65
2024-02-29T23:34:42.638Z,31.70
2024-02-29T23:37:15.797Z,33.15
2024-02-29T23:39:55.662Z,30.86
2024-02-29T23:42:28.877Z,30.58
2024-02-29T23:56:04.602Z,31.08
2024-02-29T23:58:47.658Z,30.95
